createdAt,value
2019-02-26T00:00:34.900Z,99.90
2019-02-26T00:03:02.944Z,99.90
2019-02-26T00:05:31.196Z,99.90
2019-02-26T00:08:00.165Z,99.90
2019-02-26T00:10:31.608Z,99.90
2019-02-26T00:12:59.254Z,99.90
2019-02-26T00:15:26.405Z,99.90
2019-02-26T00:17:53.559Z,99.90
2019-02-26T00:20:20.399Z,99.90
2019-02-26T00:22:47.549Z,99.90
2019-02-26T00:25:20.460Z,99.90
2019-02-26T00:27:49.458Z,99.90
2019-02-26T00:30:18.489Z,99.90
2019-02-26T00:32:45.069Z,99.90
2019-02-26T00:35:11.948Z,99.90
2019-02-26T00:37:39.056Z,99.90
2019-02-26T00:40:17.975Z,99.90
2019-02-26T00:42:44.109Z,99.90
2019-02-26T00:45:13.048Z,99.90
2019-02-26T00:47:41.199Z,99.90
2019-02-26T13:08:17.183Z,99.90
2019-02-26T13:10:46.538Z,77.60
2019-02-26T13:13:11.374Z,78.00
2019-02-26T13:15:38.572Z,74.80
2019-02-26T13:18:05.585Z,74.90
2019-02-26T13:20:32.428Z,76.70
2019-02-26T13:23:16.343Z,75.50
2019-02-26T13:25:27.959Z,74.10
2019-02-26T13:27:55.108Z,75.20
2019-02-26T13:30:24.360Z,74.80
2019-02-26T13:32:56.072Z,74.00
2019-02-26T13:35:20.255Z,75.70
2019-02-26T15:13:44.398Z,73.50
2019-02-26T15:16:11.244Z,36.70
2019-02-26T15:18:38.092Z,35.00
2019-02-26T15:21:05.237Z,37.20
2019-02-26T15:23:32.079Z,36.20
2019-02-26T15:25:59.231Z,38.00
2019-02-26T15:28:26.073Z,36.70
2019-02-26T15:30:52.918Z,34.30
2019-02-26T15:33:19.760Z,33.90
2019-02-26T15:35:46.908Z,36.20
2019-02-26T15:38:13.753Z,35.30
2019-02-26T15:40:40.596Z,34.70
2019-02-26T15:43:07.442Z,35.80
2019-02-26T15:45:34.683Z,35.80
2019-02-26T15:48:03.716Z,37.30
2019-02-26T15:50:29.814Z,37.30
2019-02-26T15:52:56.662Z,38.10
2019-02-26T15:55:28.788Z,38.40
2019-02-26T15:57:55.265Z,38.80
2019-02-26T16:00:22.965Z,40.40
2019-02-26T16:02:50.120Z,42.50
2019-02-26T16:05:16.968Z,43.20
2019-02-26T16:07:43.561Z,43.60
2019-02-26T16:12:37.242Z,45.30
2019-02-26T16:15:07.952Z,45.60
2019-02-26T16:17:34.001Z,47.00
2019-02-26T16:20:00.845Z,47.60
2019-02-26T16:22:27.687Z,48.60
2019-02-26T16:24:54.531Z,49.30
2019-02-26T16:27:21.840Z,50.60
2019-02-26T16:29:49.139Z,52.10
2019-02-26T16:32:15.720Z,53.30
2019-02-26T16:34:42.519Z,53.70
2019-02-26T16:37:09.363Z,55.70
2019-02-26T16:39:36.520Z,55.80
2019-02-26T16:42:03.359Z,56.20
2019-02-26T16:44:30.201Z,56.90
2019-02-26T16:46:57.046Z,58.70
2019-02-26T16:49:25.852Z,59.50
2019-02-26T16:51:52.478Z,60.20
2019-02-26T16:54:20.339Z,60.40
2019-02-26T16:56:48.719Z,61.10
2019-02-26T16:59:15.300Z,62.50
2019-02-26T17:01:41.836Z,63.70
2019-02-26T17:04:08.931Z,64.20
2019-02-26T17:06:35.784Z,64.20
2019-02-26T17:09:04.474Z,64.60
2019-02-26T17:11:31.318Z,65.20
2019-02-26T17:13:57.853Z,65.90
2019-02-26T17:43:25.133Z,81.60
2019-02-26T17:45:52.378Z,84.80
2019-02-26T17:48:19.194Z,86.80
2019-02-26T17:50:46.566Z,88.90
2019-02-26T17:53:13.490Z,87.30
2019-02-26T17:55:40.018Z,88.00
2019-02-26T17:58:09.802Z,90.30
2019-02-26T18:00:39.550Z,91.30
2019-02-26T18:03:07.228Z,92.40
2019-02-26T18:32:30.361Z,93.70
2019-02-26T18:34:57.203Z,96.10
2019-02-26T18:37:25.657Z,97.70
2019-02-26T18:39:54.752Z,97.00
2019-02-26T18:42:22.038Z,97.70
2019-02-26T18:44:48.878Z,98.60
2019-02-26T18:47:16.036Z,99.50
2019-02-26T18:49:43.179Z,99.90
2019-02-26T18:52:11.866Z,99.90
2019-02-26T18:54:38.668Z,99.90
2019-02-26T18:57:05.246Z,99.90
2019-02-26T18:59:32.087Z,99.90
2019-02-26T19:01:58.677Z,99.90
2019-02-26T19:19:09.133Z,99.90
2019-02-26T19:41:14.924Z,99.90
2019-02-26T19:55:56.627Z,99.90
2019-02-26T19:58:23.400Z,99.90
2019-02-26T20:00:52.652Z,99.90
2019-02-26T20:03:18.618Z,99.90
2019-02-26T20:20:30.207Z,99.90
2019-02-26T20:22:57.054Z,99.90
2019-02-26T20:25:23.636Z,99.90
2019-02-26T20:27:54.625Z,99.90
2019-02-26T20:30:20.029Z,99.90
2019-02-26T20:32:46.886Z,99.90
2019-02-26T20:35:13.727Z,99.90
2019-02-26T20:37:40.569Z,99.90
2019-02-26T20:40:09.256Z,99.90
2019-02-26T20:42:36.099Z,99.90
2019-02-26T20:45:02.840Z,99.90
2019-02-26T20:47:31.628Z,99.90
2019-02-26T20:49:57.858Z,99.90
2019-02-26T20:52:24.703Z,99.90
2019-02-26T20:54:51.545Z,99.90
2019-02-26T20:57:18.128Z,99.90
2019-02-26T20:59:44.664Z,99.90
2019-02-26T21:02:11.466Z,99.90
2019-02-26T21:04:38.044Z,99.90
2019-02-26T21:07:04.846Z,99.90
2019-02-26T21:09:31.688Z,99.90
2019-02-26T21:11:58.257Z,99.90
2019-02-26T21:14:24.712Z,99.90
2019-02-26T21:16:53.496Z,99.90
2019-02-26T21:19:19.448Z,99.90
2019-02-26T21:21:48.827Z,99.90
2019-02-26T21:24:14.588Z,99.90
2019-02-26T21:26:41.431Z,99.90
2019-02-26T21:29:08.024Z,99.90
2019-02-26T21:31:34.812Z,99.90
2019-02-26T21:34:03.690Z,99.90
2019-02-26T21:36:29.728Z,99.90
2019-02-26T21:38:56.570Z,99.90
2019-02-26T21:41:24.044Z,99.90
2019-02-26T21:43:50.871Z,99.90
2019-02-26T21:46:17.718Z,99.90
2019-02-26T21:48:44.559Z,99.90
